Time;durP1;ratioP1;P1;durP2;ratioP2;P2;SDS_P1;SDS_P2;PMS_P1;PMS_P2;Temp;Humidity;BMP_temperature;BMP_pressure;BME280_temperature;BME280_humidity;BME280_pressure;Samples;Min_cycle;Max_cycle;Signal;HPM_P1;HPM_P2
2023/01/28 00:00:26;;;;;;;11.55;5.70;;;0.10;99.90;;;;;;4995426;28;20077;-51
2023/01/28 00:02:52;;;;;;;14.30;4.90;;;0.10;99.90;;;;;;4991992;28;20113;-41
2023/01/28 00:05:18;;;;;;;13.82;4.72;;;0.10;99.90;;;;;;4991943;28;20029;-54
2023/01/28 00:07:43;;;;;;;9.43;4.22;;;0.10;99.90;;;;;;4979301;28;20034;-45
2023/01/28 00:10:10;;;;;;;11.95;4.68;;;0.10;99.90;;;;;;4997642;28;20026;-42
2023/01/28 00:12:35;;;;;;;13.45;4.57;;;0.10;99.90;;;;;;4993405;28;20045;-44
2023/01/28 00:15:01;;;;;;;13.63;4.68;;;0.10;99.90;;;;;;4991751;28;20026;-44
2023/01/28 00:17:26;;;;;;;12.90;4.88;;;0.10;99.90;;;;;;5005083;28;20132;-46
2023/01/28 00:19:52;;;;;;;9.43;4.55;;;0.10;99.90;;;;;;4991748;28;20381;-38
2023/01/28 00:22:18;;;;;;;16.08;5.03;;;0.10;99.90;;;;;;4991588;28;20030;-42
2023/01/28 00:24:45;;;;;;;12.02;5.20;;;0.10;99.90;;;;;;5005853;28;20030;-40
2023/01/28 00:27:11;;;;;;;13.15;5.65;;;0.10;99.90;;;;;;5011271;28;20049;-56
2023/01/28 00:29:37;;;;;;;17.52;5.53;;;0.00;99.90;;;;;;5011343;28;20104;-52
2023/01/28 00:32:03;;;;;;;16.08;6.85;;;0.00;99.90;;;;;;5011079;28;20446;-40
2023/01/28 00:34:28;;;;;;;13.93;7.38;;;0.00;99.90;;;;;;5011127;28;20109;-41
2023/01/28 00:36:57;;;;;;;19.67;8.00;;;0.00;99.90;;;;;;5010599;28;20120;-50
2023/01/28 00:39:24;;;;;;;21.00;7.35;;;0.00;99.90;;;;;;5011266;28;20469;-45
2023/01/28 00:41:51;;;;;;;12.15;6.30;;;-0.10;99.90;;;;;;4993278;28;20030;-49
2023/01/28 00:44:17;;;;;;;12.15;6.35;;;-0.10;99.90;;;;;;5011176;28;20018;-43
2023/01/28 00:46:43;;;;;;;19.50;7.43;;;-0.10;99.90;;;;;;5011060;28;20030;-51
2023/01/28 00:49:09;;;;;;;14.02;6.85;;;-0.10;99.90;;;;;;5010831;28;20034;-38
2023/01/28 00:51:35;;;;;;;18.42;7.32;;;-0.10;99.90;;;;;;5011130;28;20109;-42
2023/01/28 00:54:00;;;;;;;16.33;6.38;;;-0.10;99.90;;;;;;5012023;28;20057;-41
2023/01/28 00:56:26;;;;;;;20.63;6.85;;;-0.10;99.90;;;;;;5015007;28;20070;-40
2023/01/28 00:58:52;;;;;;;15.60;7.05;;;-0.10;99.90;;;;;;5014840;28;20037;-45
2023/01/28 01:01:23;;;;;;;16.38;7.35;;;-0.10;99.90;;;;;;5014621;28;20531;-40
2023/01/28 01:04:04;;;;;;;14.20;7.65;;;-0.10;99.90;;;;;;5014681;28;20030;-48
2023/01/28 01:06:36;;;;;;;23.67;8.45;;;0.00;99.90;;;;;;5014571;28;20065;-44
2023/01/28 01:09:04;;;;;;;17.08;8.00;;;0.00;99.90;;;;;;5014711;28;20337;-38
2023/01/28 01:11:30;;;;;;;12.95;7.60;;;0.00;99.90;;;;;;5014692;28;20377;-45
2023/01/28 01:13:58;;;;;;;12.95;6.88;;;0.00;99.90;;;;;;5014645;28;20026;-38
2023/01/28 01:16:27;;;;;;;12.93;7.00;;;0.00;99.90;;;;;;5014626;28;20030;-41
2023/01/28 01:18:54;;;;;;;16.70;7.15;;;-0.10;99.90;;;;;;5014585;28;20038;-45
2023/01/28 01:21:23;;;;;;;16.77;7.90;;;-0.10;99.90;;;;;;5014847;28;20096;-39
2023/01/28 01:23:49;;;;;;;17.02;7.20;;;0.00;99.90;;;;;;4996799;28;20105;-48
2023/01/28 01:26:15;;;;;;;15.95;7.57;;;0.00;99.90;;;;;;5014428;28;20033;-42
2023/01/28 01:28:41;;;;;;;21.05;8.05;;;0.00;99.90;;;;;;5014287;28;20026;-46
2023/01/28 01:31:16;;;;;;;18.50;8.05;;;0.00;99.90;;;;;;5014304;28;20400;-45
2023/01/28 01:33:45;;;;;;;18.98;7.75;;;0.00;99.90;;;;;;5014315;28;20041;-43
2023/01/28 01:36:12;;;;;;;20.17;8.27;;;0.00;99.90;;;;;;5014193;28;20041;-43
2023/01/28 01:38:39;;;;;;;15.00;7.15;;;0.00;99.90;;;;;;5013836;28;20034;-40
2023/01/28 01:41:05;;;;;;;13.10;7.22;;;0.00;99.90;;;;;;5014201;28;20040;-42
2023/01/28 01:43:51;;;;;;;18.65;7.43;;;0.00;99.90;;;;;;5014132;28;20030;-44
2023/01/28 01:46:23;;;;;;;22.02;8.02;;;0.00;99.90;;;;;;5014247;28;20033;-49
2023/01/28 01:48:49;;;;;;;13.98;7.75;;;0.00;99.90;;;;;;5014114;28;20033;-45
2023/01/28 01:51:20;;;;;;;18.08;8.07;;;0.00;99.90;;;;;;5014108;28;20476;-49
2023/01/28 01:53:51;;;;;;;18.67;8.18;;;0.00;99.90;;;;;;5013805;28;20393;-42
2023/01/28 01:56:20;;;;;;;16.05;7.97;;;0.00;99.90;;;;;;5013715;28;20045;-40
2023/01/28 01:58:50;;;;;;;15.83;7.37;;;0.10;99.90;;;;;;5013774;28;20037;-38
2023/01/28 02:01:19;;;;;;;15.30;7.35;;;0.10;99.90;;;;;;5013654;28;20117;-43
2023/01/28 02:04:04;;;;;;;18.23;8.40;;;0.10;99.90;;;;;;5013859;28;20036;-51
2023/01/28 02:06:31;;;;;;;17.85;7.93;;;0.10;99.90;;;;;;5001534;28;20097;-42
2023/01/28 02:08:57;;;;;;;15.57;7.43;;;0.00;99.90;;;;;;5013591;28;20513;-45
2023/01/28 02:11:27;;;;;;;17.50;8.27;;;-0.10;99.90;;;;;;5013821;28;20022;-49
2023/01/28 02:13:56;;;;;;;18.00;8.35;;;-0.10;99.90;;;;;;5013694;28;20017;-50
2023/01/28 02:16:23;;;;;;;22.95;8.60;;;-0.20;99.90;;;;;;5013417;28;20040;-43
2023/01/28 02:18:49;;;;;;;17.55;8.15;;;-0.20;99.90;;;;;;5013483;28;20511;-44
2023/01/28 02:21:37;;;;;;;17.63;8.00;;;-0.20;99.90;;;;;;5013312;28;20033;-39
2023/01/28 02:24:28;;;;;;;18.02;8.38;;;-0.30;99.90;;;;;;5013417;28;20018;-47
2023/01/28 02:27:19;;;;;;;17.77;8.25;;;-0.30;99.90;;;;;;5013348;28;20033;-45
2023/01/28 02:30:25;;;;;;;14.50;7.32;;;-0.40;99.90;;;;;;5013278;28;20021;-44
2023/01/28 02:33:04;;;;;;;15.35;7.93;;;-0.50;99.90;;;;;;4925566;29;20035;-46
2023/01/28 02:35:51;;;;;;;14.82;6.97;;;-0.60;99.90;;;;;;4933357;29;20062;-53
2023/01/28 02:38:27;;;;;;;18.00;8.00;;;-0.60;99.90;;;;;;4976520;28;20046;-46
2023/01/28 02:41:07;;;;;;;17.55;8.75;;;-0.70;99.90;;;;;;5013047;28;20022;-52
2023/01/28 02:43:37;;;;;;;19.48;7.65;;;-0.70;99.90;;;;;;5012911;28;20034;-43
2023/01/28 02:49:06;;;;;;;16.98;8.40;;;-0.60;99.90;;;;;;5012683;28;20466;-37
2023/01/28 02:51:47;;;;;;;14.40;8.02;;;-0.50;99.90;;;;;;5013081;28;20030;-42
2023/01/28 02:54:34;;;;;;;19.25;8.45;;;-0.30;99.90;;;;;;5012759;28;20026;-51
2023/01/28 02:57:11;;;;;;;15.70;7.80;;;-0.20;99.90;;;;;;5012787;28;20034;-40
2023/01/28 03:00:09;;;;;;;19.63;7.88;;;-0.10;99.90;;;;;;5012704;28;20469;-41
2023/01/28 03:02:43;;;;;;;12.10;7.43;;;0.00;99.90;;;;;;4971892;28;20059;-53
2023/01/28 03:05:21;;;;;;;15.60;7.70;;;0.00;99.90;;;;;;4973329;28;20097;-56
2023/01/28 03:07:48;;;;;;;17.60;7.07;;;0.10;99.90;;;;;;4973311;28;20027;-45
2023/01/28 03:10:18;;;;;;;13.75;6.78;;;0.10;99.90;;;;;;4973406;28;20114;-42
2023/01/28 03:38:55;;;;;;;13.23;6.68;;;0.90;99.90;;;;;;4972994;28;20103;-40
2023/01/28 03:41:23;;;;;;;14.50;6.93;;;1.00;99.90;;;;;;4972877;28;20046;-40
2023/01/28 03:43:50;;;;;;;11.35;6.53;;;1.10;99.90;;;;;;4972791;28;20023;-50
2023/01/28 03:46:17;;;;;;;12.80;7.25;;;1.10;99.90;;;;;;4972812;28;20030;-55
2023/01/28 03:48:43;;;;;;;15.57;7.32;;;1.00;99.90;;;;;;4972728;28;20514;-54
2023/01/28 03:51:08;;;;;;;14.57;6.00;;;1.00;99.90;;;;;;4972890;28;20035;-48
2023/01/28 03:53:34;;;;;;;15.30;6.72;;;1.00;99.90;;;;;;4972938;28;20027;-48
2023/01/28 03:56:00;;;;;;;12.88;6.32;;;1.00;99.90;;;;;;4972589;28;20455;-42
2023/01/28 03:58:44;;;;;;;14.43;6.10;;;1.00;99.90;;;;;;4972284;28;20031;-44
2023/01/28 04:01:10;;;;;;;10.50;5.88;;;1.10;99.90;;;;;;4987529;28;20055;-38
2023/01/28 04:03:36;;;;;;;13.13;6.28;;;1.20;99.90;;;;;;4992046;28;20049;-49
2023/01/28 04:06:04;;;;;;;14.57;6.72;;;1.30;99.90;;;;;;4992013;28;20025;-43
2023/01/28 04:08:30;;;;;;;12.15;6.00;;;1.30;99.90;;;;;;5002146;28;20014;-49
2023/01/28 04:10:56;;;;;;;13.40;6.22;;;1.40;99.90;;;;;;5011423;28;20053;-49
2023/01/28 04:13:22;;;;;;;11.85;6.28;;;1.40;99.90;;;;;;5010885;28;20041;-55
2023/01/28 04:15:48;;;;;;;14.90;6.53;;;1.40;99.90;;;;;;4993646;28;20432;-53
2023/01/28 04:18:14;;;;;;;13.88;7.20;;;1.40;99.90;;;;;;5005668;28;20757;-46
2023/01/28 04:20:40;;;;;;;18.23;6.20;;;1.50;99.90;;;;;;4991727;28;20034;-49
2023/01/28 04:23:09;;;;;;;14.77;6.25;;;1.50;99.90;;;;;;4991661;28;20030;-46
2023/01/28 04:25:34;;;;;;;11.70;5.22;;;1.50;99.90;;;;;;4998384;28;20396;-48
2023/01/28 04:28:00;;;;;;;15.05;6.22;;;1.60;99.90;;;;;;4998322;28;20026;-43
2023/01/28 04:30:26;;;;;;;12.57;5.72;;;1.60;99.90;;;;;;4991104;28;20022;-50
2023/01/28 04:32:51;;;;;;;13.30;6.22;;;1.70;99.90;;;;;;4991600;28;20057;-49
2023/01/28 04:35:18;;;;;;;12.82;6.53;;;1.70;99.90;;;;;;4999982;28;20041;-46
2023/01/28 04:37:43;;;;;;;12.32;6.20;;;1.70;99.90;;;;;;5021380;28;20044;-41
2023/01/28 04:40:11;;;;;;;14.02;6.03;;;1.70;99.90;;;;;;5012979;28;20021;-41
2023/01/28 04:42:36;;;;;;;18.67;6.55;;;1.80;99.90;;;;;;5012864;28;20108;-45
2023/01/28 04:45:03;;;;;;;15.32;6.13;;;1.80;99.90;;;;;;4998369;28;20462;-46
2023/01/28 04:47:28;;;;;;;17.23;6.65;;;1.80;99.90;;;;;;4991516;28;20022;-46
2023/01/28 04:49:54;;;;;;;21.17;6.68;;;1.80;99.90;;;;;;4973977;28;20144;-40
2023/01/28 04:52:20;;;;;;;16.42;7.00;;;1.80;99.90;;;;;;4991253;28;20034;-49
2023/01/28 04:54:45;;;;;;;11.88;6.55;;;1.80;99.90;;;;;;4991312;28;20478;-38
2023/01/28 04:57:11;;;;;;;15.02;6.38;;;1.80;99.90;;;;;;4991158;28;20069;-51
2023/01/28 04:59:36;;;;;;;15.73;7.10;;;1.80;99.90;;;;;;4991303;28;20053;-44
2023/01/28 05:02:02;;;;;;;12.13;5.57;;;1.80;99.90;;;;;;4991185;28;20450;-48
2023/01/28 05:04:28;;;;;;;10.23;5.43;;;1.80;99.90;;;;;;4991104;28;20025;-49
2023/01/28 05:06:53;;;;;;;12.45;4.93;;;1.80;99.90;;;;;;4991330;28;20497;-38
2023/01/28 05:09:19;;;;;;;8.73;4.65;;;1.80;99.90;;;;;;4991098;28;20033;-38
2023/01/28 05:11:45;;;;;;;9.50;4.75;;;1.90;99.90;;;;;;4978612;28;20026;-40
2023/01/28 05:14:11;;;;;;;8.10;4.05;;;1.90;99.90;;;;;;4994022;28;20026;-39
2023/01/28 05:16:36;;;;;;;10.98;4.55;;;2.00;99.90;;;;;;4984727;28;20096;-40
2023/01/28 05:19:02;;;;;;;10.73;5.15;;;2.00;99.90;;;;;;4999229;28;20025;-38
2023/01/28 05:21:27;;;;;;;10.18;4.50;;;2.00;99.90;;;;;;4998304;28;20030;-37
2023/01/28 05:23:53;;;;;;;14.27;4.60;;;2.00;99.90;;;;;;4996176;28;20021;-38
2023/01/28 05:26:19;;;;;;;9.00;4.53;;;2.10;99.90;;;;;;4995311;28;20038;-41
2023/01/28 05:28:45;;;;;;;10.40;4.35;;;2.10;99.90;;;;;;4990923;28;20050;-38
2023/01/28 05:31:11;;;;;;;9.90;3.65;;;2.10;99.90;;;;;;4991249;28;20054;-38
2023/01/28 05:33:37;;;;;;;8.18;3.80;;;2.10;99.90;;;;;;4990878;28;20033;-38
2023/01/28 05:36:03;;;;;;;8.73;3.78;;;2.20;99.90;;;;;;4991080;28;20034;-37
2023/01/28 05:38:29;;;;;;;9.25;3.88;;;2.20;99.90;;;;;;4990710;28;20463;-38
2023/01/28 05:40:55;;;;;;;18.73;4.15;;;2.30;99.90;;;;;;4991952;28;20125;-38
2023/01/28 05:43:20;;;;;;;11.13;3.92;;;2.30;99.90;;;;;;4994369;28;20061;-38
2023/01/28 05:45:46;;;;;;;10.85;6.15;;;2.30;99.90;;;;;;4994560;28;20595;-42
2023/01/28 05:48:12;;;;;;;10.73;5.53;;;2.30;99.90;;;;;;4994463;28;20030;-40
2023/01/28 05:50:38;;;;;;;12.45;6.63;;;2.20;99.90;;;;;;4995073;28;20026;-37
2023/01/28 05:53:07;;;;;;;12.27;5.65;;;2.20;99.90;;;;;;5002526;28;20470;-38
2023/01/28 05:55:33;;;;;;;12.18;5.88;;;2.10;99.90;;;;;;5006114;28;20029;-39
2023/01/28 05:57:58;;;;;;;11.77;5.53;;;2.20;99.90;;;;;;4994394;28;20035;-48
2023/01/28 06:00:24;;;;;;;10.65;5.00;;;2.10;99.90;;;;;;4993894;28;20046;-46
2023/01/28 06:02:52;;;;;;;10.73;5.47;;;2.10;99.90;;;;;;4994340;28;20022;-53
2023/01/28 06:05:18;;;;;;;11.63;5.43;;;2.10;99.90;;;;;;4994039;28;20014;-48
2023/01/28 06:07:45;;;;;;;11.50;5.53;;;2.10;99.90;;;;;;4994250;28;20045;-49
2023/01/28 06:10:11;;;;;;;9.23;4.57;;;2.10;99.90;;;;;;4994268;28;20450;-44
2023/01/28 06:12:36;;;;;;;9.48;5.40;;;2.10;99.90;;;;;;4993919;28;20180;-52
2023/01/28 06:15:02;;;;;;;8.55;4.90;;;2.10;99.90;;;;;;4994207;28;20030;-42
2023/01/28 06:17:28;;;;;;;11.57;4.88;;;2.10;99.90;;;;;;5006221;28;20038;-47
2023/01/28 06:19:54;;;;;;;12.10;4.90;;;2.10;99.90;;;;;;4999786;28;20206;-40
2023/01/28 06:22:19;;;;;;;9.07;4.22;;;2.10;99.90;;;;;;5011288;28;20093;-47
2023/01/28 06:24:45;;;;;;;12.65;5.20;;;2.10;99.90;;;;;;4996877;28;20026;-38
2023/01/28 06:27:10;;;;;;;11.23;4.47;;;2.10;99.90;;;;;;4993847;28;20827;-46
2023/01/28 06:29:36;;;;;;;11.25;4.40;;;2.10;99.90;;;;;;4993804;28;20038;-37
2023/01/28 06:32:02;;;;;;;9.07;4.30;;;2.10;99.90;;;;;;4976570;28;20026;-50
2023/01/28 06:34:27;;;;;;;10.77;3.75;;;2.10;99.90;;;;;;4976330;28;20022;-41
2023/01/28 06:36:53;;;;;;;12.68;4.30;;;2.10;99.90;;;;;;4993366;28;20116;-43
2023/01/28 06:39:21;;;;;;;9.68;3.95;;;2.10;99.90;;;;;;4993763;28;20026;-42
2023/01/28 06:41:47;;;;;;;6.32;3.92;;;2.00;99.90;;;;;;4993315;28;20038;-51
2023/01/28 06:44:13;;;;;;;8.52;4.18;;;2.10;99.90;;;;;;4993425;28;20374;-42
2023/01/28 06:46:39;;;;;;;6.32;4.00;;;2.10;99.90;;;;;;4993335;28;20026;-40
2023/01/28 06:49:04;;;;;;;10.20;4.20;;;2.10;99.90;;;;;;4995034;28;20447;-42
2023/01/28 06:51:30;;;;;;;7.90;3.67;;;2.10;99.90;;;;;;5011865;28;20071;-37
2023/01/28 06:53:56;;;;;;;10.40;3.97;;;2.10;99.90;;;;;;5012768;28;20030;-44
2023/01/28 06:56:21;;;;;;;11.40;3.80;;;2.10;99.90;;;;;;5022576;28;20025;-41
2023/01/28 06:58:47;;;;;;;8.85;3.80;;;2.10;99.90;;;;;;5012767;28;20465;-45
2023/01/28 07:01:13;;;;;;;7.28;3.50;;;2.10;99.90;;;;;;5016725;28;20042;-41
2023/01/28 07:03:38;;;;;;;12.02;3.67;;;2.10;99.90;;;;;;5013026;28;20129;-39
2023/01/28 07:06:05;;;;;;;8.98;3.63;;;2.00;99.90;;;;;;5017588;28;20026;-38
2023/01/28 07:08:30;;;;;;;8.18;3.60;;;2.10;99.90;;;;;;5012497;28;20018;-38
2023/01/28 07:10:56;;;;;;;7.38;3.75;;;2.10;99.90;;;;;;5012291;28;20033;-53
2023/01/28 07:13:21;;;;;;;8.10;3.88;;;2.10;99.90;;;;;;5012263;28;20358;-46
2023/01/28 07:15:48;;;;;;;10.43;3.90;;;2.10;99.90;;;;;;4994929;28;20485;-38
2023/01/28 07:18:14;;;;;;;7.35;3.35;;;2.10;99.90;;;;;;5012352;28;20034;-47
2023/01/28 07:20:39;;;;;;;9.13;3.90;;;2.20;99.90;;;;;;4994780;28;20030;-44
2023/01/28 07:23:05;;;;;;;6.40;3.28;;;2.20;99.90;;;;;;5010933;28;20045;-45
2023/01/28 07:25:30;;;;;;;13.48;4.95;;;2.20;99.90;;;;;;5012237;28;20053;-40
2023/01/28 07:27:56;;;;;;;10.80;5.72;;;2.20;99.90;;;;;;5012180;28;20026;-42
2023/01/28 07:30:23;;;;;;;14.23;5.40;;;2.20;99.90;;;;;;5012344;28;20030;-42
2023/01/28 07:32:59;;;;;;;10.80;4.97;;;2.20;99.90;;;;;;4994408;28;20022;-46
2023/01/28 07:35:25;;;;;;;9.82;4.47;;;2.20;99.90;;;;;;5011984;28;20040;-39
2023/01/28 07:37:56;;;;;;;12.27;4.75;;;2.20;99.90;;;;;;5011885;28;20041;-44
2023/01/28 07:40:23;;;;;;;9.85;4.32;;;2.20;99.90;;;;;;5025828;28;20022;-45
2023/01/28 07:42:49;;;;;;;7.90;3.95;;;2.30;99.90;;;;;;5011682;28;20026;-39
2023/01/28 07:45:15;;;;;;;11.10;4.85;;;2.30;99.90;;;;;;5011747;28;20034;-38
2023/01/28 07:47:41;;;;;;;10.30;5.00;;;2.40;99.90;;;;;;5012007;28;20064;-38
2023/01/28 07:50:08;;;;;;;11.02;5.18;;;2.30;99.90;;;;;;5011789;28;20058;-38
2023/01/28 07:52:42;;;;;;;12.18;5.50;;;2.40;99.90;;;;;;5011753;28;20324;-37
2023/01/28 07:55:09;;;;;;;10.18;5.30;;;2.40;99.90;;;;;;5011584;28;20033;-41
2023/01/28 07:57:35;;;;;;;9.00;4.80;;;2.40;99.90;;;;;;5011698;28;20049;-38
2023/01/28 08:00:00;;;;;;;11.63;4.88;;;2.40;99.90;;;;;;5011716;28;20105;-41
2023/01/28 08:02:28;;;;;;;11.93;5.00;;;2.40;99.90;;;;;;5011496;28;20037;-40
2023/01/28 08:04:53;;;;;;;8.20;4.28;;;2.40;99.90;;;;;;5010737;28;20026;-44
2023/01/28 08:07:19;;;;;;;14.38;4.57;;;2.50;99.90;;;;;;5011655;28;20496;-52
2023/01/28 08:09:44;;;;;;;8.63;4.13;;;2.50;99.90;;;;;;5011482;28;20033;-49
2023/01/28 08:12:10;;;;;;;10.68;4.38;;;2.60;99.90;;;;;;5011391;28;20029;-45
2023/01/28 08:14:36;;;;;;;8.55;4.53;;;2.60;99.90;;;;;;5011292;28;20072;-37
2023/01/28 08:17:01;;;;;;;12.07;4.47;;;2.60;99.90;;;;;;5011274;28;20049;-38
2023/01/28 08:19:27;;;;;;;10.93;5.13;;;2.70;99.90;;;;;;5011145;28;20018;-48
2023/01/28 08:21:52;;;;;;;13.15;5.03;;;2.70;99.90;;;;;;5011284;28;20389;-45
2023/01/28 08:24:18;;;;;;;9.40;4.82;;;2.70;99.90;;;;;;5011206;28;20021;-44
2023/01/28 08:26:46;;;;;;;10.25;4.95;;;2.70;99.90;;;;;;5011098;28;20036;-38
2023/01/28 08:29:12;;;;;;;9.55;4.88;;;2.70;99.90;;;;;;5011066;28;20088;-45
2023/01/28 08:31:37;;;;;;;10.10;4.70;;;2.70;99.90;;;;;;5011098;28;20072;-46
2023/01/28 08:34:03;;;;;;;6.32;3.65;;;2.80;99.90;;;;;;5010900;28;20489;-41
2023/01/28 08:36:28;;;;;;;9.75;4.05;;;2.90;99.90;;;;;;5010657;28;20044;-47
2023/01/28 08:38:54;;;;;;;6.90;3.33;;;2.90;99.90;;;;;;5011071;28;20038;-43
2023/01/28 08:41:23;;;;;;;7.70;3.58;;;2.90;99.90;;;;;;5011067;28;20022;-44
2023/01/28 08:43:48;;;;;;;7.03;4.13;;;3.00;99.90;;;;;;5023980;28;20029;-45
2023/01/28 08:46:14;;;;;;;10.82;4.13;;;3.00;99.90;;;;;;5009469;28;20026;-38
2023/01/28 08:48:40;;;;;;;9.13;3.50;;;3.10;99.90;;;;;;5013091;28;20026;-42
2023/01/28 08:51:06;;;;;;;6.63;3.13;;;3.20;99.90;;;;;;5011021;28;20093;-47
2023/01/28 08:53:31;;;;;;;7.43;3.40;;;3.20;99.90;;;;;;5018609;28;20033;-43
2023/01/28 08:55:57;;;;;;;7.97;3.58;;;3.30;99.90;;;;;;5024369;28;20028;-37
2023/01/28 08:58:23;;;;;;;6.47;2.90;;;3.40;99.90;;;;;;5025213;28;20033;-38
2023/01/28 09:00:49;;;;;;;5.85;2.90;;;3.40;99.90;;;;;;5020148;28;20042;-41
2023/01/28 09:03:16;;;;;;;7.25;2.55;;;3.50;99.90;;;;;;5020052;28;20469;-48
2023/01/28 09:05:43;;;;;;;8.35;2.63;;;3.60;99.90;;;;;;5010536;28;20038;-47
2023/01/28 09:08:11;;;;;;;6.70;2.58;;;3.70;99.90;;;;;;5010905;28;20129;-40
2023/01/28 09:10:37;;;;;;;6.78;2.70;;;3.80;99.90;;;;;;5010718;28;20084;-38
2023/01/28 09:13:14;;;;;;;11.77;2.65;;;3.80;99.90;;;;;;5010456;28;20018;-55
2023/01/28 09:15:40;;;;;;;5.68;2.83;;;3.90;99.90;;;;;;5012726;28;20034;-40
2023/01/28 09:18:06;;;;;;;6.15;3.00;;;3.90;99.90;;;;;;4996958;28;20033;-45
2023/01/28 09:20:32;;;;;;;4.47;2.20;;;4.00;99.90;;;;;;5014611;28;20056;-41
2023/01/28 09:22:59;;;;;;;6.07;2.30;;;4.10;99.90;;;;;;5014358;28;20030;-47
2023/01/28 09:25:24;;;;;;;4.88;2.42;;;4.10;99.90;;;;;;5014345;28;20109;-45
2023/01/28 09:27:50;;;;;;;6.60;2.55;;;4.20;99.90;;;;;;5029561;28;20033;-42
2023/01/28 09:30:16;;;;;;;138.30;15.85;;;4.30;99.90;;;;;;5022736;28;20018;-38
2023/01/28 09:32:42;;;;;;;14.93;4.63;;;4.40;99.90;;;;;;5028161;28;20033;-41
2023/01/28 09:35:08;;;;;;;9.20;3.80;;;4.40;99.90;;;;;;5025587;28;20101;-45
2023/01/28 09:37:33;;;;;;;6.65;2.92;;;4.40;99.90;;;;;;5029168;28;20145;-39
2023/01/28 09:39:59;;;;;;;6.97;3.40;;;4.50;99.90;;;;;;5025431;28;20479;-48
2023/01/28 09:42:37;;;;;;;6.60;2.72;;;4.50;99.90;;;;;;5013797;28;20072;-48
2023/01/28 09:45:31;;;;;;;4.72;2.67;;;4.60;99.90;;;;;;5009194;28;20030;-47
2023/01/28 09:48:00;;;;;;;6.40;2.50;;;4.60;99.90;;;;;;5010015;28;20045;-44
2023/01/28 09:50:42;;;;;;;9.20;3.20;;;4.60;99.90;;;;;;5014021;28;20504;-52
2023/01/28 09:53:23;;;;;;;4.97;3.25;;;4.70;99.90;;;;;;5017692;28;20025;-55
2023/01/28 09:56:13;;;;;;;9.05;3.50;;;4.80;99.90;;;;;;5022447;28;20034;-37
2023/01/28 09:58:41;;;;;;;6.78;3.30;;;4.90;99.90;;;;;;4994502;28;20038;-49
2023/01/28 10:01:26;;;;;;;6.47;3.20;;;4.90;99.90;;;;;;5013582;28;20048;-46
2023/01/28 10:03:59;;;;;;;7.35;3.38;;;4.90;99.90;;;;;;5013564;28;20061;-42
2023/01/28 10:06:27;;;;;;;5.55;3.08;;;5.00;99.90;;;;;;5013741;28;20496;-40
2023/01/28 10:09:34;;;;;;;9.93;3.80;;;5.20;99.90;;;;;;5013685;28;20477;-49
2023/01/28 10:12:25;;;;;;;11.55;3.55;;;5.40;99.90;;;;;;5005644;28;20053;-53
2023/01/28 10:15:28;;;;;;;9.57;3.33;;;5.50;99.90;;;;;;5026439;28;20088;-55
2023/01/28 10:18:10;;;;;;;6.00;3.22;;;5.70;99.90;;;;;;5011531;28;20042;-53
2023/01/28 10:20:44;;;;;;;4.75;2.90;;;5.80;99.90;;;;;;5027101;28;20032;-38
2023/01/28 10:23:15;;;;;;;6.55;3.30;;;5.90;99.90;;;;;;5022541;28;20104;-36
2023/01/28 10:25:44;;;;;;;5.68;2.63;;;5.90;99.90;;;;;;5013325;28;20029;-38
2023/01/28 10:28:19;;;;;;;7.22;3.00;;;6.00;99.90;;;;;;5012411;28;20500;-38
2023/01/28 10:30:46;;;;;;;10.40;3.45;;;6.10;99.90;;;;;;5005607;28;20037;-45
2023/01/28 10:33:18;;;;;;;10.27;3.42;;;6.20;99.90;;;;;;5008556;28;20058;-39
2023/01/28 10:35:43;;;;;;;8.52;3.10;;;6.40;99.90;;;;;;5003958;28;20108;-41
2023/01/28 10:38:14;;;;;;;7.75;3.13;;;6.50;99.90;;;;;;5024427;28;21480;-39
2023/01/28 10:40:41;;;;;;;5.97;3.05;;;6.70;99.90;;;;;;4995435;28;20079;-48
2023/01/28 10:43:07;;;;;;;9.65;3.00;;;6.70;99.90;;;;;;5012545;28;20037;-55
2023/01/28 10:45:44;;;;;;;6.82;2.78;;;6.70;99.90;;;;;;5012533;28;20088;-38
2023/01/28 10:48:31;;;;;;;5.93;2.35;;;6.90;99.90;;;;;;5020483;28;20033;-42
2023/01/28 10:51:04;;;;;;;7.90;2.90;;;6.90;99.90;;;;;;5025726;28;20021;-43
2023/01/28 10:53:39;;;;;;;6.05;3.30;;;7.00;99.90;;;;;;5019594;28;20108;-39
2023/01/28 10:56:09;;;;;;;6.90;2.90;;;7.10;99.90;;;;;;5016220;28;20373;-38
2023/01/28 10:58:47;;;;;;;8.25;2.72;;;7.30;99.90;;;;;;4995035;28;20169;-43
2023/01/28 11:01:12;;;;;;;8.75;2.55;;;7.50;99.60;;;;;;5012738;28;20050;-38
2023/01/28 11:03:50;;;;;;;8.60;2.40;;;8.00;99.90;;;;;;5012676;28;20045;-41
2023/01/28 11:06:27;;;;;;;9.13;2.30;;;8.70;98.80;;;;;;5012569;28;20029;-42
2023/01/28 11:08:53;;;;;;;9.40;2.45;;;9.20;94.40;;;;;;5012827;28;20508;-44
2023/01/28 11:11:25;;;;;;;8.70;2.28;;;10.50;93.80;;;;;;5025296;28;20024;-38
2023/01/28 11:13:53;;;;;;;6.40;2.40;;;12.60;89.90;;;;;;5018441;28;20381;-38
2023/01/28 11:16:19;;;;;;;4.88;2.15;;;15.00;80.30;;;;;;5013027;28;20045;-39
2023/01/28 11:18:54;;;;;;;4.85;2.22;;;16.80;65.60;;;;;;5015458;28;20421;-43
2023/01/28 11:21:25;;;;;;;8.35;1.95;;;18.10;58.10;;;;;;5012187;28;20065;-37
2023/01/28 11:23:54;;;;;;;8.32;2.08;;;19.10;53.70;;;;;;5018979;28;20037;-37
2023/01/28 11:26:26;;;;;;;4.73;1.87;;;19.70;54.00;;;;;;5022934;28;20496;-38
2023/01/28 11:28:52;;;;;;;6.43;2.40;;;19.50;48.40;;;;;;5012025;28;20030;-38
2023/01/28 11:31:22;;;;;;;6.75;2.13;;;19.80;49.00;;;;;;5001468;28;20022;-47
2023/01/28 11:33:53;;;;;;;5.13;2.00;;;19.50;47.40;;;;;;5005177;28;20026;-37
2023/01/28 11:36:22;;;;;;;4.03;2.00;;;20.10;46.50;;;;;;5010334;28;20029;-41
2023/01/28 11:38:52;;;;;;;;;;;19.80;47.40;;;;;;5011403;28;20033;-37
2023/01/28 11:41:25;;;;;;;5.70;2.10;;;19.60;45.90;;;;;;5011754;28;19905;-41
2023/01/28 11:43:51;;;;;;;5.72;1.85;;;20.40;47.90;;;;;;5012027;28;20030;-46
2023/01/28 11:46:35;;;;;;;5.43;2.08;;;21.00;44.30;;;;;;5010715;28;20040;-38
2023/01/28 11:49:29;;;;;;;5.97;1.92;;;19.80;43.30;;;;;;5011688;28;20056;-44
2023/01/28 11:52:18;;;;;;;5.50;1.80;;;20.40;46.00;;;;;;5001072;28;20040;-54
2023/01/28 11:55:09;;;;;;;4.28;2.13;;;20.40;44.20;;;;;;5011808;28;20115;-46
2023/01/28 11:57:48;;;;;;;5.85;2.33;;;19.80;44.90;;;;;;5011452;28;20052;-37
2023/01/28 12:00:39;;;;;;;5.55;2.38;;;21.30;45.40;;;;;;5011690;28;20042;-38
2023/01/28 12:03:11;;;;;;;9.05;2.63;;;21.20;43.60;;;;;;5011683;28;20113;-39
2023/01/28 12:05:50;;;;;;;3.03;1.98;;;21.80;42.90;;;;;;5011483;28;20018;-38
2023/01/28 12:08:29;;;;;;;4.65;1.90;;;21.60;42.20;;;;;;5011783;28;20500;-43
2023/01/28 12:11:00;;;;;;;8.75;2.33;;;22.60;41.60;;;;;;5011244;28;20444;-47
2023/01/28 12:13:41;;;;;;;3.75;2.05;;;22.90;39.30;;;;;;5011427;28;20025;-43
2023/01/28 12:16:33;;;;;;;4.20;1.90;;;23.50;38.90;;;;;;5011373;28;20022;-37
2023/01/28 12:19:10;;;;;;;5.28;2.20;;;22.70;41.00;;;;;;5011237;28;20030;-38
2023/01/28 12:22:00;;;;;;;5.35;2.38;;;22.60;41.70;;;;;;4998751;28;20547;-40
2023/01/28 12:24:56;;;;;;;5.15;2.53;;;22.50;41.30;;;;;;5011160;28;20393;-40
2023/01/28 12:27:51;;;;;;;4.35;2.22;;;22.20;41.20;;;;;;5011290;28;20096;-45
2023/01/28 12:30:28;;;;;;;5.00;1.88;;;22.40;39.70;;;;;;5000117;28;20121;-39
2023/01/28 12:33:06;;;;;;;5.53;2.03;;;22.00;39.30;;;;;;5010964;28;20022;-40
2023/01/28 12:36:18;;;;;;;5.25;2.20;;;22.50;39.70;;;;;;5010983;28;20552;-37
2023/01/28 12:39:00;;;;;;;4.85;2.33;;;22.10;40.60;;;;;;4983906;28;20041;-37
2023/01/28 12:41:36;;;;;;;4.55;2.30;;;20.10;44.10;;;;;;5014689;28;20025;-37
2023/01/28 12:44:11;;;;;;;2.95;1.75;;;19.20;45.70;;;;;;5010682;28;20025;-37
2023/01/28 12:46:45;;;;;;;4.10;2.10;;;18.30;46.40;;;;;;5021486;28;20037;-38
2023/01/28 12:49:23;;;;;;;4.68;2.15;;;16.80;48.50;;;;;;5025524;28;20022;-37
2023/01/28 12:51:55;;;;;;;7.68;2.50;;;16.00;49.50;;;;;;5027777;28;20634;-38
2023/01/28 12:54:32;;;;;;;7.38;2.53;;;15.50;51.10;;;;;;5017160;28;20050;-37
2023/01/28 12:56:59;;;;;;;7.47;2.45;;;14.40;52.50;;;;;;5022814;28;20026;-53
2023/01/28 12:59:27;;;;;;;4.38;2.20;;;13.70;55.60;;;;;;5025483;28;20498;-43
2023/01/28 13:02:21;;;;;;;4.75;2.08;;;13.30;57.40;;;;;;5025218;28;20407;-40
2023/01/28 13:05:04;;;;;;;7.43;2.80;;;13.20;56.70;;;;;;5024839;28;20030;-42
2023/01/28 13:07:54;;;;;;;6.88;2.85;;;12.90;58.10;;;;;;5007056;28;20056;-41
2023/01/28 13:10:26;;;;;;;5.32;2.58;;;12.50;60.80;;;;;;5018046;28;20489;-39
2023/01/28 13:12:53;;;;;;;8.40;2.50;;;12.20;60.00;;;;;;5010637;28;20100;-38
2023/01/28 13:15:19;;;;;;;3.70;2.33;;;11.80;59.70;;;;;;5005143;28;20022;-39
2023/01/28 13:17:57;;;;;;;5.97;2.40;;;11.40;62.10;;;;;;5012373;28;20041;-47
2023/01/28 13:20:49;;;;;;;5.90;2.95;;;11.40;63.10;;;;;;5006642;28;20041;-40
2023/01/28 13:23:35;;;;;;;3.70;2.28;;;10.70;63.80;;;;;;5007648;28;20018;-46
2023/01/28 13:26:49;;;;;;;5.65;2.50;;;10.70;65.00;;;;;;5009963;28;20041;-43
2023/01/28 13:29:24;;;;;;;5.72;2.30;;;10.90;65.30;;;;;;5004473;28;20073;-43
2023/01/28 13:31:53;;;;;;;5.63;2.58;;;10.70;65.70;;;;;;5010200;28;20026;-41
2023/01/28 13:34:39;;;;;;;5.13;2.58;;;10.60;66.10;;;;;;5015843;28;20029;-41